createdAt,value
2018-08-28T00:31:08.478Z,23.2
2018-08-28T00:31:58.500Z,23.2
2018-08-28T00:32:47.423Z,23.2
2018-08-28T00:33:38.048Z,23.2
2018-08-28T00:34:28.148Z,23.2
2018-08-28T00:35:17.700Z,23.2
2018-08-28T00:36:08.982Z,23.2
2018-08-28T00:36:58.270Z,23.2
2018-08-28T00:37:48.673Z,23.2
2018-08-28T00:38:39.588Z,23.2
2018-08-28T00:39:29.332Z,23.2
2018-08-28T00:40:19.148Z,23.2
2018-08-28T00:41:10.059Z,23.2
2018-08-28T00:41:59.840Z,23.2
2018-08-28T00:42:49.297Z,23.2
2018-08-28T00:43:39.980Z,23.3
2018-08-28T00:44:30.043Z,23.3
2018-08-28T00:45:20.085Z,23.2
2018-08-28T00:46:10.337Z,23.2
2018-08-28T00:46:58.499Z,23.2
2018-08-28T00:47:49.433Z,23.2
2018-08-28T00:48:40.324Z,23.2
2018-08-28T00:49:30.409Z,23.2
2018-08-28T00:50:19.899Z,23.2
2018-08-28T00:51:10.317Z,23.2
2018-08-28T00:52:00.371Z,23.2
2018-08-28T00:52:50.419Z,23.2
2018-08-28T00:53:39.872Z,23.2
2018-08-28T00:54:30.787Z,23.2
2018-08-28T00:55:20.849Z,23.2
2018-08-28T00:56:10.602Z,23.3
2018-08-28T00:57:01.029Z,23.2
2018-08-28T00:57:49.614Z,23.2
2018-08-28T00:58:40.160Z,23.2
2018-08-28T00:59:30.642Z,23.2
2018-08-28T01:00:20.407Z,23.2
2018-08-28T01:01:11.047Z,23.2
2018-08-28T01:02:01.655Z,23.2
2018-08-28T01:02:50.326Z,23.2
2018-08-28T01:03:39.785Z,23.2
2018-08-28T01:04:30.806Z,23.2
2018-08-28T01:05:21.368Z,23.2
2018-08-28T01:06:10.588Z,23.2
2018-08-28T01:07:01.139Z,23.3
2018-08-28T01:07:50.666Z,23.3
2018-08-28T01:08:41.650Z,23.2
2018-08-28T01:09:30.799Z,23.2
2018-08-28T01:10:20.333Z,23.2
2018-08-28T01:11:11.221Z,23.2
2018-08-28T01:12:01.948Z,23.2
2018-08-28T01:12:51.270Z,23.2
2018-08-28T01:13:40.812Z,23.2
2018-08-28T01:14:31.155Z,23.2
2018-08-28T01:15:22.408Z,23.2
2018-08-28T01:16:11.878Z,23.2
2018-08-28T01:17:03.320Z,23.2
2018-08-28T01:17:52.589Z,23.3
2018-08-28T01:18:42.383Z,23.2
2018-08-28T01:19:32.723Z,23.2
2018-08-28T01:20:22.525Z,23.2
2018-08-28T01:21:12.840Z,23.2
2018-08-28T01:22:02.734Z,23.2
2018-08-28T01:22:52.645Z,23.2
2018-08-28T01:23:42.272Z,23.2
2018-08-28T01:24:33.132Z,23.2
2018-08-28T01:25:22.911Z,23.3
2018-08-28T01:26:13.232Z,23.2
2018-08-28T01:27:03.509Z,23.2
2018-08-28T01:27:53.630Z,23.3
2018-08-28T01:28:42.868Z,23.2
2018-08-28T01:29:32.936Z,23.2
2018-08-28T01:30:22.957Z,23.2
2018-08-28T01:31:13.636Z,23.2
2018-08-28T01:32:02.835Z,23.2
2018-08-28T01:32:53.442Z,23.3
2018-08-28T01:33:43.242Z,23.2
2018-08-28T01:34:33.029Z,23.3
2018-08-28T01:35:23.369Z,23.2
2018-08-28T01:36:13.187Z,23.2
2018-08-28T01:37:03.596Z,23.2
2018-08-28T01:37:52.944Z,23.3
2018-08-28T01:38:43.294Z,23.3
2018-08-28T01:39:34.015Z,23.2
2018-08-28T01:40:23.765Z,23.3
2018-08-28T01:41:13.562Z,23.2
2018-08-28T01:42:04.181Z,23.2
2018-08-28T01:42:54.038Z,23.2
2018-08-28T01:43:44.619Z,23.2
2018-08-28T01:44:33.532Z,23.2
2018-08-28T01:45:23.839Z,23.2
2018-08-28T01:46:14.212Z,23.3
2018-08-28T01:47:03.487Z,23.2
2018-08-28T01:47:54.516Z,23.2
2018-08-28T01:48:44.704Z,23.2
2018-08-28T01:49:34.114Z,23.3
2018-08-28T01:50:23.961Z,23.3
2018-08-28T01:51:15.181Z,23.3
2018-08-28T01:52:04.957Z,23.3
2018-08-28T01:52:54.506Z,23.2
2018-08-28T01:53:44.506Z,23.3
2018-08-28T01:54:34.059Z,23.2
2018-08-28T01:55:24.681Z,23.2
2018-08-28T01:56:15.534Z,23.3
2018-08-28T01:57:05.061Z,23.3
2018-08-28T01:57:55.886Z,23.3
2018-08-28T01:58:45.426Z,23.3
2018-08-28T01:59:34.964Z,23.2
2018-08-28T02:00:25.586Z,23.3
2018-08-28T02:01:15.646Z,23.3
2018-08-28T02:02:06.001Z,23.3
2018-08-28T02:02:56.033Z,23.3
2018-08-28T02:03:45.856Z,23.3
2018-08-28T02:04:35.919Z,23.3
2018-08-28T02:05:26.039Z,23.3
2018-08-28T02:06:16.384Z,23.3
2018-08-28T02:07:06.103Z,23.3
2018-08-28T02:07:56.453Z,23.2
2018-08-28T02:08:46.260Z,23.3
2018-08-28T02:09:35.715Z,23.3
2018-08-28T02:10:26.839Z,23.3
2018-08-28T02:11:16.122Z,23.3
2018-08-28T02:12:05.647Z,23.3
2018-08-28T02:12:56.306Z,23.3
2018-08-28T02:13:46.575Z,23.3
2018-08-28T02:14:35.797Z,23.2
2018-08-28T02:15:25.885Z,23.3
2018-08-28T02:16:17.142Z,23.2
2018-08-28T02:17:06.302Z,23.2
2018-08-28T02:17:56.640Z,23.3
2018-08-28T02:18:46.980Z,23.2
2018-08-28T02:19:36.227Z,23.3
2018-08-28T02:20:27.046Z,23.3
2018-08-28T02:21:16.880Z,23.2
2018-08-28T02:22:06.954Z,23.3
2018-08-28T02:22:57.020Z,23.3
2018-08-28T02:23:46.922Z,23.3
2018-08-28T02:24:37.139Z,23.3
2018-08-28T02:25:27.533Z,23.3
2018-08-28T02:26:16.997Z,23.3
2018-08-28T02:27:07.364Z,23.3
2018-08-28T02:27:57.969Z,23.3
2018-08-28T02:28:48.048Z,23.3
2018-08-28T02:29:37.548Z,23.3
2018-08-28T02:30:27.981Z,23.3
2018-08-28T02:31:17.659Z,23.3
2018-08-28T02:32:08.297Z,23.3
2018-08-28T02:32:57.229Z,23.3
2018-08-28T02:33:50.490Z,23.3
2018-08-28T02:34:38.240Z,23.2
2018-08-28T02:35:28.239Z,23.3
2018-08-28T02:36:18.613Z,23.3
2018-08-28T02:37:08.679Z,23.2
2018-08-28T02:37:58.763Z,23.3
2018-08-28T02:38:49.106Z,23.3
2018-08-28T02:39:37.794Z,23.3
2018-08-28T02:40:28.393Z,23.3
2018-08-28T02:41:19.003Z,23.3
2018-08-28T02:42:09.122Z,23.3
2018-08-28T02:42:59.186Z,23.2
2018-08-28T02:43:48.078Z,23.3
2018-08-28T02:44:38.715Z,23.3
2018-08-28T02:45:29.090Z,23.3
2018-08-28T02:46:17.687Z,23.2
2018-08-28T02:47:08.620Z,23.3
2018-08-28T02:47:58.673Z,23.3
2018-08-28T02:48:48.715Z,23.3
2018-08-28T02:49:38.506Z,23.2
2018-08-28T02:50:29.100Z,23.3
2018-08-28T02:51:18.961Z,23.3
2018-08-28T02:52:09.263Z,23.2
2018-08-28T02:53:00.193Z,23.3
2018-08-28T02:53:50.028Z,23.3
2018-08-28T02:54:39.529Z,23.3
2018-08-28T02:55:28.394Z,23.3
2018-08-28T02:56:19.651Z,23.3
2018-08-28T02:57:09.627Z,23.3
2018-08-28T02:57:59.992Z,23.2
2018-08-28T02:58:50.125Z,23.3
2018-08-28T02:59:39.582Z,23.2
2018-08-28T03:00:29.888Z,23.2
2018-08-28T03:01:20.215Z,23.3
2018-08-28T03:02:09.787Z,23.2
2018-08-28T03:03:01.920Z,23.3
2018-08-28T03:03:50.188Z,23.2
2018-08-28T03:04:39.931Z,23.3
2018-08-28T03:05:31.178Z,23.3
2018-08-28T03:06:20.585Z,23.3
2018-08-28T03:07:11.015Z,23.3
2018-08-28T03:08:01.134Z,23.3
2018-08-28T03:08:50.828Z,23.2
2018-08-28T03:09:40.922Z,23.3
2018-08-28T03:10:30.152Z,23.3
2018-08-28T03:11:21.876Z,23.3
2018-08-28T03:12:10.921Z,23.3
2018-08-28T03:13:01.209Z,23.3
2018-08-28T03:13:51.539Z,23.3
2018-08-28T03:14:41.839Z,23.3
2018-08-28T03:15:32.662Z,23.3
2018-08-28T03:16:21.988Z,23.3
2018-08-28T03:17:10.914Z,23.3
2018-08-28T03:18:01.630Z,23.3
2018-08-28T03:18:51.343Z,23.2
2018-08-28T03:19:41.391Z,23.3
2018-08-28T03:20:30.826Z,23.3
2018-08-28T03:21:22.076Z,23.3
2018-08-28T03:22:11.871Z,23.3
2018-08-28T03:23:02.007Z,23.3
2018-08-28T03:23:51.456Z,23.3
2018-08-28T03:24:41.234Z,23.3
2018-08-28T03:25:32.771Z,23.3
2018-08-28T03:26:21.913Z,23.3
2018-08-28T03:27:11.988Z,23.3
2018-08-28T03:28:01.488Z,23.3
2018-08-28T03:28:51.929Z,23.3
2018-08-28T03:29:42.713Z,23.3
2018-08-28T03:30:32.658Z,23.3
2018-08-28T03:31:21.998Z,23.3
2018-08-28T03:32:12.387Z,23.3
2018-08-28T03:33:02.123Z,23.3
2018-08-28T03:33:53.047Z,23.3
2018-08-28T03:34:41.917Z,23.3
2018-08-28T03:35:32.585Z,23.2
2018-08-28T03:36:22.048Z,23.3
2018-08-28T03:37:12.875Z,23.2
2018-08-28T03:38:03.412Z,23.3
2018-08-28T03:38:53.429Z,23.3
2018-08-28T03:39:43.536Z,23.2
2018-08-28T03:40:33.583Z,23.3
2018-08-28T03:41:22.783Z,23.3
2018-08-28T03:42:13.142Z,23.3
2018-08-28T03:43:03.167Z,23.3
2018-08-28T03:43:53.829Z,23.3
2018-08-28T03:44:44.793Z,23.3
2018-08-28T03:45:34.304Z,23.2
2018-08-28T03:46:23.736Z,23.3
2018-08-28T03:47:13.809Z,23.3
2018-08-28T03:48:03.277Z,23.3
2018-08-28T03:48:53.646Z,23.3
2018-08-28T03:49:44.252Z,23.3
2018-08-28T03:50:33.883Z,23.3
2018-08-28T03:51:23.884Z,23.3
2018-08-28T03:52:13.626Z,23.3
2018-08-28T03:53:03.991Z,23.2
2018-08-28T03:53:54.111Z,23.2
2018-08-28T03:54:44.052Z,23.2
2018-08-28T03:55:35.908Z,23.3
2018-08-28T03:56:23.319Z,23.2
2018-08-28T03:57:14.512Z,23.3
2018-08-28T03:58:04.628Z,23.3
2018-08-28T03:58:54.139Z,23.3
2018-08-28T03:59:43.899Z,23.3
2018-08-28T04:00:33.649Z,23.3
2018-08-28T04:01:24.494Z,23.2
2018-08-28T04:02:14.296Z,23.3
2018-08-28T04:03:05.291Z,23.2
2018-08-28T04:03:55.418Z,23.2
2018-08-28T04:04:44.874Z,23.2
2018-08-28T04:05:33.753Z,23.3
2018-08-28T04:06:25.799Z,23.3
2018-08-28T04:07:15.064Z,23.2
2018-08-28T04:08:05.111Z,23.3
2018-08-28T04:08:55.158Z,23.3
2018-08-28T04:09:45.520Z,23.3
2018-08-28T04:10:35.029Z,23.3
2018-08-28T04:11:24.771Z,23.2
2018-08-28T04:12:15.178Z,23.3
2018-08-28T04:13:04.921Z,23.3
2018-08-28T04:13:56.376Z,23.2
2018-08-28T04:14:46.188Z,23.2
2018-08-28T04:15:35.976Z,23.2
2018-08-28T04:16:26.291Z,23.2
2018-08-28T04:17:17.705Z,23.2
2018-08-28T04:18:06.466Z,23.1
2018-08-28T04:18:56.553Z,23.1
2018-08-28T04:19:46.586Z,23.1
2018-08-28T04:20:36.343Z,23.1
2018-08-28T04:21:26.916Z,23.1
2018-08-28T04:22:16.483Z,23.1
2018-08-28T04:23:06.836Z,23.1
2018-08-28T04:23:56.643Z,23.1
2018-08-28T04:24:46.943Z,23.1
2018-08-28T04:25:37.021Z,23.1
2018-08-28T04:26:27.084Z,23.1
2018-08-28T04:27:17.125Z,23.1
2018-08-28T04:28:06.973Z,23.1
2018-08-28T04:28:57.327Z,23.1
2018-08-28T04:29:46.188Z,23.1
2018-08-28T04:30:38.822Z,23.1
2018-08-28T04:31:27.256Z,23.1
2018-08-28T04:32:16.405Z,23.1
2018-08-28T04:33:07.268Z,23.1
2018-08-28T04:33:57.043Z,23.1
2018-08-28T04:34:47.133Z,23.1
2018-08-28T04:35:37.230Z,23.1
2018-08-28T04:36:26.692Z,23.1
2018-08-28T04:37:17.397Z,23.1
2018-08-28T04:38:07.782Z,23.1
2018-08-28T04:38:57.475Z,23.1
2018-08-28T04:39:48.087Z,23.1
2018-08-28T04:40:38.177Z,23.1
2018-08-28T04:41:28.176Z,23.1
2018-08-28T04:42:18.280Z,23.1
2018-08-28T05:00:21.918Z,23.1
2018-08-28T05:01:12.610Z,23.1
2018-08-28T05:02:03.115Z,23.1
2018-08-28T05:02:52.965Z,23.1
2018-08-28T05:03:43.564Z,23.1
2018-08-28T05:04:32.601Z,23.1
2018-08-28T05:05:23.986Z,23.1
2018-08-28T05:06:12.591Z,23.1
2018-08-28T05:07:03.236Z,23
2018-08-28T05:07:53.301Z,23.1
2018-08-28T05:08:43.692Z,23.1
2018-08-28T05:09:33.177Z,23.1
2018-08-28T05:10:24.168Z,23.1
2018-08-28T05:11:14.466Z,23.1
2018-08-28T05:12:04.419Z,23.1
2018-08-28T05:12:53.796Z,23.1
2018-08-28T05:13:44.358Z,23.1
2018-08-28T05:14:34.435Z,23.1
2018-08-28T05:15:24.444Z,23.1
2018-08-28T05:16:14.528Z,23
2018-08-28T05:17:04.176Z,23
2018-08-28T05:17:54.444Z,23.1
2018-08-28T05:18:44.151Z,23.1
2018-08-28T05:19:35.591Z,23
2018-08-28T05:20:24.254Z,23
2018-08-28T05:21:15.156Z,23
2018-08-28T05:22:04.663Z,23.1
2018-08-28T05:22:55.040Z,23.1
2018-08-28T05:23:45.095Z,23.1
2018-08-28T05:24:34.580Z,23
2018-08-28T05:25:25.228Z,23.1
2018-08-28T05:26:15.268Z,23
2018-08-28T05:27:04.498Z,23
2018-08-28T05:27:55.375Z,23
2018-08-28T05:28:45.493Z,23
2018-08-28T05:29:35.852Z,23
2018-08-28T05:30:26.404Z,23
2018-08-28T05:31:15.896Z,23.1
2018-08-28T05:32:05.732Z,23
2018-08-28T05:32:55.203Z,23.1
2018-08-28T05:33:45.003Z,23
2018-08-28T05:34:35.395Z,23
2018-08-28T05:35:25.440Z,23.1
2018-08-28T05:36:15.752Z,23
2018-08-28T05:37:05.378Z,23.1
2018-08-28T05:37:54.604Z,23.1
2018-08-28T05:38:44.840Z,23
2018-08-28T05:39:35.232Z,23
2018-08-28T05:40:25.796Z,23
2018-08-28T05:41:14.970Z,22.9
2018-08-28T05:42:06.180Z,22.9
2018-08-28T05:42:56.356Z,22.9
2018-08-28T05:43:45.486Z,22.9
2018-08-28T05:44:36.467Z,22.9
2018-08-28T05:45:26.438Z,22.8
2018-08-28T05:46:16.887Z,22.8
2018-08-28T05:47:06.394Z,22.8
2018-08-28T05:47:57.013Z,22.8
2018-08-28T05:48:46.730Z,22.8
2018-08-28T05:49:38.387Z,22.8
2018-08-28T05:50:26.584Z,22.8
2018-08-28T05:51:16.891Z,22.8
2018-08-28T05:52:07.231Z,22.8
2018-08-28T05:52:57.042Z,22.8
2018-08-28T05:53:47.439Z,22.8
2018-08-28T05:54:37.479Z,22.8
2018-08-28T05:55:26.691Z,22.8
2018-08-28T05:56:20.524Z,22.8
2018-08-28T05:57:07.915Z,22.8
2018-08-28T05:57:57.443Z,22.8
2018-08-28T05:58:47.058Z,22.8
2018-08-28T05:59:37.859Z,22.8
2018-08-28T06:00:26.784Z,22.8
2018-08-28T06:01:17.757Z,22.7
2018-08-28T06:02:08.038Z,22.8
2018-08-28T06:02:58.383Z,22.8
2018-08-28T06:03:47.036Z,22.8
2018-08-28T06:04:38.005Z,22.8
2018-08-28T06:05:28.070Z,22.8
2018-08-28T06:06:17.503Z,22.8
2018-08-28T06:07:07.833Z,22.8
2018-08-28T06:07:58.188Z,22.8
2018-08-28T06:08:48.734Z,22.8
2018-08-28T06:09:37.193Z,22.8
2018-08-28T06:10:28.088Z,22.8
2018-08-28T06:11:18.737Z,22.8
2018-08-28T06:12:08.758Z,22.8
2018-08-28T06:12:58.597Z,22.7
2018-08-28T06:13:48.621Z,22.8
2018-08-28T06:14:38.767Z,22.7
2018-08-28T06:15:27.910Z,22.7
2018-08-28T06:16:17.958Z,22.8
2018-08-28T06:17:08.580Z,22.7
2018-08-28T06:17:58.081Z,22.7
2018-08-28T06:18:48.937Z,22.7
2018-08-28T06:19:37.935Z,22.8
2018-08-28T06:20:29.462Z,22.7
2018-08-28T06:21:19.317Z,22.7
2018-08-28T06:22:09.374Z,22.7
2018-08-28T06:23:00.607Z,22.7
2018-08-28T06:23:49.413Z,22.6
2018-08-28T06:24:39.479Z,22.6
2018-08-28T06:25:29.552Z,22.6
2018-08-28T06:26:19.870Z,22.6
2018-08-28T06:27:08.969Z,22.6
2018-08-28T06:27:59.871Z,22.6
2018-08-28T06:28:50.145Z,22.6
2018-08-28T06:29:39.884Z,22.6
2018-08-28T06:30:30.239Z,22.6
2018-08-28T06:31:19.789Z,22.6
2018-08-28T06:32:10.406Z,22.6
2018-08-28T06:33:00.444Z,22.6
2018-08-28T06:33:50.694Z,22.6
2018-08-28T06:34:40.300Z,22.6
2018-08-28T06:35:30.323Z,22.5
2018-08-28T06:36:19.800Z,22.5
2018-08-28T06:37:10.543Z,22.5
2018-08-28T06:38:00.800Z,22.5
2018-08-28T06:38:50.821Z,22.5
2018-08-28T06:39:40.440Z,22.5
2018-08-28T06:40:30.669Z,22.5
2018-08-28T06:41:19.884Z,22.5
2018-08-28T06:42:09.939Z,22.5
2018-08-28T06:43:00.529Z,22.5
2018-08-28T06:43:51.280Z,22.5
2018-08-28T06:44:40.746Z,22.4
2018-08-28T06:45:29.607Z,22.4
2018-08-28T06:46:20.599Z,22.4
2018-08-28T06:47:10.976Z,22.4
2018-08-28T06:48:00.691Z,22.4
2018-08-28T06:48:51.096Z,22.4
2018-08-28T06:49:42.535Z,22.4
2018-08-28T06:50:30.877Z,22.4
2018-08-28T06:51:20.376Z,22.4
2018-08-28T06:52:11.832Z,22.4
2018-08-28T06:53:01.158Z,22.4
2018-08-28T06:53:51.208Z,22.4
2018-08-28T06:54:40.674Z,22.4
2018-08-28T06:55:30.973Z,22.4
2018-08-28T06:56:22.168Z,22.4
2018-08-28T06:57:11.990Z,22.4
2018-08-28T06:58:02.578Z,22.4
2018-08-28T06:58:52.095Z,22.4
2018-08-28T06:59:42.948Z,22.4
2018-08-28T07:00:32.502Z,22.4
2018-08-28T07:01:22.151Z,22.4
2018-08-28T07:02:12.404Z,22.4
2018-08-28T07:03:02.723Z,22.4
2018-08-28T07:03:53.247Z,22.4
2018-08-28T07:04:42.257Z,22.4
2018-08-28T07:05:32.833Z,22.4
2018-08-28T07:06:22.483Z,22.4
2018-08-28T07:07:12.530Z,22.4
2018-08-28T07:08:05.149Z,22.4
2018-08-28T07:08:52.865Z,22.4
2018-08-28T07:09:43.282Z,22.4
2018-08-28T07:10:33.777Z,22.4
2018-08-28T07:11:22.415Z,22.4
2018-08-28T07:12:12.643Z,22.4
2018-08-28T07:13:03.481Z,22.4
2018-08-28T07:13:53.252Z,22.4
2018-08-28T07:14:42.717Z,22.4
2018-08-28T07:15:32.859Z,22.4
2018-08-28T07:16:22.837Z,22.4
2018-08-28T07:17:13.503Z,22.4
2018-08-28T07:18:04.094Z,22.4
2018-08-28T07:18:55.806Z,22.4
2018-08-28T07:19:43.919Z,22.4
2018-08-28T07:20:33.684Z,22.4
2018-08-28T07:21:22.641Z,22.4
2018-08-28T07:22:13.307Z,22.4
2018-08-28T07:23:04.318Z,22.3
2018-08-28T07:23:53.731Z,22.3
2018-08-28T07:24:42.889Z,22.3
2018-08-28T07:25:34.392Z,22.4
2018-08-28T07:26:23.976Z,22.3
2018-08-28T07:27:13.454Z,22.3
2018-08-28T07:28:03.468Z,22.3
2018-08-28T07:28:54.106Z,22.4
2018-08-28T07:29:43.036Z,22.4
2018-08-28T07:30:33.738Z,22.4
2018-08-28T07:31:24.950Z,22.4
2018-08-28T07:32:14.433Z,22.4
2018-08-28T07:33:04.960Z,22.4
2018-08-28T07:33:54.758Z,22.4
2018-08-28T07:34:44.860Z,22.4
2018-08-28T07:35:35.450Z,22.4
2018-08-28T07:36:25.261Z,22.4
2018-08-28T07:37:15.229Z,22.4
2018-08-28T07:38:04.818Z,22.4
2018-08-28T07:38:55.140Z,22.4
2018-08-28T07:39:45.513Z,22.4
2018-08-28T07:40:35.573Z,22.4
2018-08-28T07:41:25.631Z,22.4
2018-08-28T07:42:14.595Z,22.4
2018-08-28T07:43:06.444Z,22.4
2018-08-28T07:43:55.876Z,22.4
2018-08-28T07:44:45.885Z,22.4
2018-08-28T07:45:34.833Z,22.4
2018-08-28T07:46:25.970Z,22.4
2018-08-28T07:47:15.803Z,22.4
2018-08-28T07:48:05.929Z,22.4
2018-08-28T07:48:56.050Z,22.4
2018-08-28T07:49:45.142Z,22.4
2018-08-28T07:50:35.478Z,22.4
2018-08-28T07:51:25.503Z,22.4
2018-08-28T07:52:15.322Z,22.4
2018-08-28T07:53:06.583Z,22.4
2018-08-28T07:53:57.585Z,22.4
2018-08-28T07:54:45.540Z,22.4
2018-08-28T07:55:36.473Z,22.4
2018-08-28T07:56:26.495Z,22.4
2018-08-28T07:57:16.587Z,22.4
2018-08-28T07:58:05.825Z,22.4
2018-08-28T07:58:56.140Z,22.4
2018-08-28T07:59:45.629Z,22.4
2018-08-28T08:00:37.151Z,22.4
2018-08-28T08:01:27.954Z,22.4
2018-08-28T08:02:16.970Z,22.4
2018-08-28T08:03:06.836Z,22.4
2018-08-28T08:03:57.062Z,22.4
2018-08-28T08:04:46.824Z,22.4
2018-08-28T08:05:36.947Z,22.4
2018-08-28T08:06:26.427Z,22.4
2018-08-28T08:07:17.607Z,22.4
2018-08-28T08:08:07.660Z,22.4
2018-08-28T08:08:57.149Z,22.4
2018-08-28T08:09:47.517Z,22.4
2018-08-28T08:10:40.312Z,22.4
2018-08-28T08:11:27.674Z,22.4
2018-08-28T08:12:17.998Z,22.4
2018-08-28T08:13:07.781Z,22.4
2018-08-28T08:13:58.368Z,22.4
2018-08-28T08:14:48.163Z,22.4
2018-08-28T08:15:39.277Z,22.4
2018-08-28T08:16:27.781Z,22.4
2018-08-28T08:17:18.437Z,22.4
2018-08-28T08:18:08.203Z,22.4
2018-08-28T08:18:58.505Z,22.4
2018-08-28T08:19:48.351Z,22.4
2018-08-28T08:20:38.633Z,22.4
2018-08-28T08:21:28.763Z,22.4
2018-08-28T08:22:21.375Z,22.4
2018-08-28T08:23:08.554Z,22.4
2018-08-28T08:23:59.150Z,22.4
2018-08-28T08:24:49.010Z,22.4
2018-08-28T08:25:38.670Z,22.4
2018-08-28T08:26:28.233Z,22.4
2018-08-28T08:27:19.117Z,22.4
2018-08-28T08:28:10.619Z,22.4
2018-08-28T08:28:58.290Z,22.4
2018-08-28T08:29:47.910Z,22.4
2018-08-28T08:30:38.875Z,22.4
2018-08-28T08:31:28.297Z,22.4
2018-08-28T08:32:17.828Z,22.4
2018-08-28T08:33:08.745Z,22.4
2018-08-28T08:33:59.370Z,22.4
2018-08-28T08:34:48.919Z,22.4
2018-08-28T08:35:38.803Z,22.5
2018-08-28T08:36:28.555Z,22.5
2018-08-28T08:37:19.519Z,22.6
2018-08-28T08:38:08.692Z,22.6
2018-08-28T08:38:58.719Z,22.7
2018-08-28T08:39:49.077Z,22.8
2018-08-28T08:40:38.870Z,22.8
2018-08-28T08:41:29.769Z,22.9
2018-08-28T08:42:19.253Z,22.9
2018-08-28T08:43:09.222Z,23.1
2018-08-28T08:43:59.891Z,23.2
2018-08-28T08:44:54.585Z,23.3
2018-08-28T08:45:40.102Z,23.4
2018-08-28T08:46:29.777Z,23.5
2018-08-28T08:47:20.741Z,23.6
2018-08-28T08:48:10.526Z,23.8
2018-08-28T08:48:59.827Z,23.9
2018-08-28T08:49:49.787Z,24.1
2018-08-28T08:50:40.129Z,24.2
2018-08-28T08:51:30.694Z,24.4
2018-08-28T08:52:20.859Z,24.6
2018-08-28T08:53:10.816Z,24.7
2018-08-28T08:54:01.009Z,24.8
2018-08-28T08:54:51.094Z,25
2018-08-28T08:55:40.576Z,25.2
2018-08-28T08:56:30.648Z,25.3
2018-08-28T08:57:22.740Z,25.5
2018-08-28T08:58:11.624Z,25.6
2018-08-28T09:14:49.871Z,27.6
2018-08-28T09:15:39.154Z,27.6
2018-08-28T09:16:28.617Z,27.7
2018-08-28T09:17:18.749Z,27.8
2018-08-28T09:18:59.040Z,27.9
2018-08-28T09:19:49.937Z,28
2018-08-28T09:20:39.490Z,28.1
2018-08-28T09:21:29.570Z,28.1
2018-08-28T09:22:19.107Z,28.2
2018-08-28T09:23:10.036Z,28.2
2018-08-28T09:23:59.013Z,28.3
2018-08-28T09:24:49.577Z,28.3
2018-08-28T09:25:39.625Z,28.4
2018-08-28T09:26:29.380Z,28.4
2018-08-28T09:27:18.614Z,28.5
2018-08-28T09:28:10.035Z,28.6
2018-08-28T09:28:59.761Z,28.6
2018-08-28T09:29:49.912Z,28.7
2018-08-28T09:30:39.414Z,28.8
2018-08-28T09:31:31.067Z,28.8
2018-08-28T09:32:20.632Z,28.9
2018-08-28T09:33:10.495Z,28.9
2018-08-28T09:33:59.822Z,29.1
2018-08-28T09:34:50.599Z,29.1
2018-08-28T09:35:40.387Z,29.2
2018-08-28T09:36:30.678Z,29.3
2018-08-28T09:37:20.517Z,29.3
2018-08-28T09:38:10.852Z,29.4
2018-08-28T09:39:02.144Z,29.4
2018-08-28T09:39:50.719Z,29.5
2018-08-28T09:40:40.745Z,29.6
2018-08-28T09:41:30.541Z,29.6
2018-08-28T09:42:20.884Z,29.6
2018-08-28T09:43:11.234Z,29.7
2018-08-28T09:44:02.568Z,29.8
2018-08-28T09:44:51.094Z,29.8
2018-08-28T09:45:41.936Z,29.9
2018-08-28T09:46:30.662Z,29.9
2018-08-28T09:47:20.973Z,29.9
2018-08-28T09:48:14.103Z,29.9
2018-08-28T09:49:01.143Z,30
2018-08-28T09:49:51.831Z,30
2018-08-28T09:50:43.101Z,30
2018-08-28T09:51:30.890Z,30.1
2018-08-28T09:52:21.928Z,30.1
2018-08-28T09:53:11.196Z,30.1
2018-08-28T09:54:01.511Z,30.1
2018-08-28T09:54:51.573Z,30.1
2018-08-28T09:55:43.253Z,30.1
2018-08-28T09:56:33.309Z,30.2
2018-08-28T09:57:21.778Z,30.3
2018-08-28T09:58:11.618Z,30.3
2018-08-28T09:59:02.193Z,30.3
2018-08-28T09:59:52.046Z,30.3
2018-08-28T10:00:42.036Z,30.4
2018-08-28T10:01:32.901Z,30.4
2018-08-28T10:02:22.173Z,30.4
2018-08-28T10:03:11.957Z,30.5
2018-08-28T10:04:02.821Z,30.6
2018-08-28T10:04:54.458Z,30.6
2018-08-28T10:05:42.671Z,30.6
2018-08-28T10:06:32.966Z,30.7
2018-08-28T10:07:22.250Z,30.8
2018-08-28T10:08:12.890Z,30.8
2018-08-28T10:09:03.248Z,30.9
2018-08-28T10:09:53.850Z,30.9
2018-08-28T10:10:43.053Z,30.9
2018-08-28T10:11:33.663Z,31
2018-08-28T10:12:23.774Z,31
2018-08-28T10:13:13.529Z,31.1
2018-08-28T10:14:03.288Z,31.1
2018-08-28T10:14:53.927Z,31.2
2018-08-28T10:16:48.909Z,31.3
2018-08-28T10:17:31.443Z,31.3
2018-08-28T10:18:38.597Z,31.3
2018-08-28T10:19:10.081Z,31.4
2018-08-28T10:19:58.850Z,31.4
2018-08-28T10:20:51.062Z,31.4
2018-08-28T10:21:39.769Z,31.4
2018-08-28T10:22:29.842Z,31.4
2018-08-28T10:23:19.874Z,31.4
2018-08-28T10:24:10.265Z,31.4
2018-08-28T10:25:00.824Z,31.4
2018-08-28T10:25:50.286Z,31.4
2018-08-28T10:26:40.084Z,31.5
2018-08-28T10:27:31.002Z,31.5
2018-08-28T10:28:19.969Z,31.5
2018-08-28T10:29:10.311Z,31.5
2018-08-28T10:29:59.931Z,31.5
2018-08-28T10:30:49.351Z,31.6
2018-08-28T10:32:29.012Z,31.6
2018-08-28T10:32:40.631Z,31.6
2018-08-28T10:33:30.094Z,31.6
2018-08-28T10:34:20.770Z,31.6
2018-08-28T10:35:10.529Z,31.6
2018-08-28T10:36:01.263Z,31.6
2018-08-28T10:36:50.392Z,31.7
2018-08-28T10:37:40.469Z,31.8
2018-08-28T10:38:30.845Z,31.8
2018-08-28T10:39:20.054Z,31.8
2018-08-28T10:40:11.043Z,31.9
2018-08-28T10:41:01.282Z,31.9
2018-08-28T10:41:51.358Z,31.9
2018-08-28T10:42:41.165Z,32
2018-08-28T10:43:31.285Z,32.1
2018-08-28T10:44:21.318Z,32.1
2018-08-28T10:45:11.581Z,32.1
2018-08-28T10:46:02.028Z,32.2
2018-08-28T10:46:55.191Z,32.2
2018-08-28T10:47:41.794Z,32.3
2018-08-28T10:48:31.664Z,32.3
2018-08-28T10:49:21.696Z,32.3
2018-08-28T10:50:11.539Z,32.4
2018-08-28T10:51:02.362Z,32.4
2018-08-28T10:51:51.849Z,32.4
2018-08-28T10:52:41.375Z,32.5
2018-08-28T10:53:31.712Z,32.5
2018-08-28T10:54:21.597Z,32.6
2018-08-28T10:55:11.573Z,32.6
2018-08-28T10:56:01.163Z,32.7
2018-08-28T10:56:52.509Z,32.7
2018-08-28T10:57:42.620Z,32.7
2018-08-28T10:58:31.649Z,32.8
2018-08-28T10:59:22.144Z,32.8
2018-08-28T11:00:12.831Z,32.8
2018-08-28T11:01:02.539Z,32.8
2018-08-28T11:01:53.120Z,32.9
2018-08-28T11:02:42.779Z,32.9
2018-08-28T11:03:32.820Z,32.9
2018-08-28T11:04:22.542Z,33
2018-08-28T11:05:13.183Z,33
2018-08-28T11:06:02.361Z,33.1
2018-08-28T11:06:52.476Z,33.1
2018-08-28T11:07:43.398Z,33.2
2018-08-28T11:08:33.310Z,33.2
2018-08-28T11:09:23.224Z,33.3
2018-08-28T11:10:12.171Z,33.3
2018-08-28T11:11:03.655Z,33.3
2018-08-28T11:11:53.255Z,33.4
2018-08-28T11:12:44.340Z,33.4
2018-08-28T11:13:33.887Z,33.4
2018-08-28T11:14:23.648Z,33.4
2018-08-28T11:15:13.500Z,33.5
2018-08-28T11:16:04.488Z,33.6
2018-08-28T11:16:53.822Z,33.6
2018-08-28T11:17:44.437Z,33.6
2018-08-28T11:18:34.210Z,33.6
2018-08-28T11:19:24.061Z,33.6
2018-08-28T11:20:14.340Z,33.6
2018-08-28T11:21:03.870Z,33.6
2018-08-28T11:21:53.727Z,33.6
2018-08-28T11:22:44.385Z,33.6
2018-08-28T11:23:34.891Z,33.6
2018-08-28T11:24:24.364Z,33.6
2018-08-28T11:25:13.919Z,33.6
2018-08-28T11:26:04.524Z,33.6
2018-08-28T11:26:54.019Z,33.6
2018-08-28T11:27:45.497Z,33.6
2018-08-28T11:28:34.149Z,33.6
2018-08-28T11:29:25.071Z,33.6
2018-08-28T11:30:15.224Z,33.6
2018-08-28T11:31:04.054Z,33.6
2018-08-28T11:31:54.162Z,33.6
2018-08-28T11:32:45.112Z,33.6
2018-08-28T11:33:35.107Z,33.6
2018-08-28T11:34:25.669Z,33.6
2018-08-28T11:35:15.509Z,33.6
2018-08-28T11:36:05.873Z,33.6
2018-08-28T11:36:55.626Z,33.6
2018-08-28T11:37:45.701Z,33.6
2018-08-28T11:38:36.512Z,33.6
2018-08-28T11:39:24.736Z,33.5
2018-08-28T11:40:16.132Z,33.5
2018-08-28T11:41:05.114Z,33.4
2018-08-28T11:41:56.322Z,33.4
2018-08-28T11:42:46.378Z,33.4
2018-08-28T11:43:35.657Z,33.4
2018-08-28T11:44:25.971Z,33.4
2018-08-28T11:45:16.566Z,33.4
2018-08-28T11:46:05.531Z,33.4
2018-08-28T11:46:56.128Z,33.4
2018-08-28T11:47:45.996Z,33.3
2018-08-28T11:48:36.835Z,33.3
2018-08-28T11:49:26.068Z,33.3
2018-08-28T11:50:16.353Z,33.3
2018-08-28T11:51:06.215Z,33.3
2018-08-28T11:51:55.951Z,33.3
2018-08-28T11:52:47.369Z,33.3
2018-08-28T11:53:36.376Z,33.3
2018-08-28T11:54:27.048Z,33.3
2018-08-28T11:55:17.113Z,33.3
2018-08-28T11:56:07.178Z,33.2
2018-08-28T11:56:56.436Z,33.3
2018-08-28T11:57:47.268Z,33.3
2018-08-28T11:58:36.718Z,33.3
2018-08-28T11:59:26.263Z,33.3
2018-08-28T12:00:18.197Z,33.3
2018-08-28T12:01:06.670Z,33.3
2018-08-28T12:01:57.912Z,33.3
2018-08-28T12:02:47.924Z,33.3
2018-08-28T12:03:36.338Z,33.3
2018-08-28T12:04:27.225Z,33.3
2018-08-28T12:05:19.850Z,33.3
2018-08-28T12:06:06.937Z,33.4
2018-08-28T12:06:58.802Z,33.4
2018-08-28T12:07:49.101Z,33.4
2018-08-28T12:08:37.687Z,33.4
2018-08-28T12:09:26.919Z,33.4
2018-08-28T12:10:18.012Z,33.5
2018-08-28T12:11:08.320Z,33.5
2018-08-28T12:11:57.030Z,33.6
2018-08-28T12:12:48.127Z,33.6
2018-08-28T12:13:38.264Z,33.6